sensor_id;sensor_type;location;lat;lon;timestamp;temperature;humidity
14142;DHT22;7151;52.246;4.820;2022-09-09T00:04:26;22.30;61.60
14142;DHT22;7151;52.246;4.820;2022-09-09T00:07:23;22.30;61.60
14142;DHT22;7151;52.246;4.820;2022-09-09T00:09:55;22.20;61.60
14142;DHT22;7151;52.246;4.820;2022-09-09T00:15:19;22.20;61.60
14142;DHT22;7151;52.246;4.820;2022-09-09T00:20:58;22.20;61.80
14142;DHT22;7151;52.246;4.820;2022-09-09T00:23:39;22.20;61.80
14142;DHT22;7151;52.246;4.820;2022-09-09T00:28:52;22.20;61.90
14142;DHT22;7151;52.246;4.820;2022-09-09T00:31:26;22.10;61.90
14142;DHT22;7151;52.246;4.820;2022-09-09T00:33:53;22.10;62.00
14142;DHT22;7151;52.246;4.820;2022-09-09T00:36:23;22.00;62.00
14142;DHT22;7151;52.246;4.820;2022-09-09T00:38:57;22.00;62.20
14142;DHT22;7151;52.246;4.820;2022-09-09T00:44:37;22.00;62.60
14142;DHT22;7151;52.246;4.820;2022-09-09T00:50:02;21.90;62.60
14142;DHT22;7151;52.246;4.820;2022-09-09T00:57:59;21.80;63.00
14142;DHT22;7151;52.246;4.820;2022-09-09T01:00:28;21.80;63.00
14142;DHT22;7151;52.246;4.820;2022-09-09T01:03:29;21.70;63.00
14142;DHT22;7151;52.246;4.820;2022-09-09T01:06:31;21.70;63.30
14142;DHT22;7151;52.246;4.820;2022-09-09T01:11:25;21.70;63.40
14142;DHT22;7151;52.246;4.820;2022-09-09T01:16:37;21.60;63.80
14142;DHT22;7151;52.246;4.820;2022-09-09T01:19:07;21.60;63.80
14142;DHT22;7151;52.246;4.820;2022-09-09T01:21:54;21.60;64.00
14142;DHT22;7151;52.246;4.820;2022-09-09T01:24:37;21.60;64.10
14142;DHT22;7151;52.246;4.820;2022-09-09T01:27:05;21.60;64.20
14142;DHT22;7151;52.246;4.820;2022-09-09T01:29:32;21.60;64.90
14142;DHT22;7151;52.246;4.820;2022-09-09T01:32:35;21.50;64.30
14142;DHT22;7151;52.246;4.820;2022-09-09T01:34:48;21.50;64.40
14142;DHT22;7151;52.246;4.820;2022-09-09T01:37:15;21.50;64.30
14142;DHT22;7151;52.246;4.820;2022-09-09T01:39:43;21.60;64.40
14142;DHT22;7151;52.246;4.820;2022-09-09T01:42:13;21.60;64.60
14142;DHT22;7151;52.246;4.820;2022-09-09T01:44:40;21.50;64.60
14142;DHT22;7151;52.246;4.820;2022-09-09T01:47:06;21.50;64.50
14142;DHT22;7151;52.246;4.820;2022-09-09T01:49:32;21.50;64.60
14142;DHT22;7151;52.246;4.820;2022-09-09T01:51:58;21.40;64.70
14142;DHT22;7151;52.246;4.820;2022-09-09T01:54:27;21.40;64.70
14142;DHT22;7151;52.246;4.820;2022-09-09T01:57:27;21.40;64.80
14142;DHT22;7151;52.246;4.820;2022-09-09T02:00:21;21.40;65.00
14142;DHT22;7151;52.246;4.820;2022-09-09T02:02:59;21.40;64.90
14142;DHT22;7151;52.246;4.820;2022-09-09T02:05:38;21.40;65.00
14142;DHT22;7151;52.246;4.820;2022-09-09T02:10:55;21.30;65.00
14142;DHT22;7151;52.246;4.820;2022-09-09T02:17:02;21.30;65.20
14142;DHT22;7151;52.246;4.820;2022-09-09T02:19:32;21.30;65.20
14142;DHT22;7151;52.246;4.820;2022-09-09T02:22:00;21.20;65.30
14142;DHT22;7151;52.246;4.820;2022-09-09T02:24:29;21.20;65.40
14142;DHT22;7151;52.246;4.820;2022-09-09T02:26:58;21.20;65.50
14142;DHT22;7151;52.246;4.820;2022-09-09T02:29:29;21.20;65.60
14142;DHT22;7151;52.246;4.820;2022-09-09T02:31:59;21.20;65.70
14142;DHT22;7151;52.246;4.820;2022-09-09T02:34:30;21.20;65.80
14142;DHT22;7151;52.246;4.820;2022-09-09T02:36:57;21.20;65.70
14142;DHT22;7151;52.246;4.820;2022-09-09T02:39:25;21.20;65.80
14142;DHT22;7151;52.246;4.820;2022-09-09T02:41:50;21.20;65.70
14142;DHT22;7151;52.246;4.820;2022-09-09T02:44:18;21.20;65.80
14142;DHT22;7151;52.246;4.820;2022-09-09T02:47:15;21.20;65.80
14142;DHT22;7151;52.246;4.820;2022-09-09T02:53:06;21.20;65.90
14142;DHT22;7151;52.246;4.820;2022-09-09T02:58:16;21.10;65.80
14142;DHT22;7151;52.246;4.820;2022-09-09T03:00:49;21.10;65.90
14142;DHT22;7151;52.246;4.820;2022-09-09T03:03:15;21.00;65.90
14142;DHT22;7151;52.246;4.820;2022-09-09T03:05:43;21.00;66.00
14142;DHT22;7151;52.246;4.820;2022-09-09T03:08:09;21.00;66.10
14142;DHT22;7151;52.246;4.820;2022-09-09T03:10:34;21.00;66.20
14142;DHT22;7151;52.246;4.820;2022-09-09T03:13:00;21.00;66.20
14142;DHT22;7151;52.246;4.820;2022-09-09T03:15:26;21.00;66.20
14142;DHT22;7151;52.246;4.820;2022-09-09T03:17:55;21.00;66.30
14142;DHT22;7151;52.246;4.820;2022-09-09T03:20:25;20.90;66.20
14142;DHT22;7151;52.246;4.820;2022-09-09T03:22:55;21.00;66.30
14142;DHT22;7151;52.246;4.820;2022-09-09T03:25:22;20.90;66.30
14142;DHT22;7151;52.246;4.820;2022-09-09T03:27:51;20.90;66.30
14142;DHT22;7151;52.246;4.820;2022-09-09T03:30:23;20.90;67.10
14142;DHT22;7151;52.246;4.820;2022-09-09T03:32:48;20.90;66.40
14142;DHT22;7151;52.246;4.820;2022-09-09T03:35:14;20.80;66.40
14142;DHT22;7151;52.246;4.820;2022-09-09T03:37:41;20.90;67.20
14142;DHT22;7151;52.246;4.820;2022-09-09T03:40:07;20.80;66.40
14142;DHT22;7151;52.246;4.820;2022-09-09T03:42:35;20.80;66.50
14142;DHT22;7151;52.246;4.820;2022-09-09T03:45:03;20.80;66.50
14142;DHT22;7151;52.246;4.820;2022-09-09T03:47:28;20.80;66.50
14142;DHT22;7151;52.246;4.820;2022-09-09T03:49:55;20.80;66.60
14142;DHT22;7151;52.246;4.820;2022-09-09T03:52:20;20.70;66.50
14142;DHT22;7151;52.246;4.820;2022-09-09T03:54:47;20.70;66.60
14142;DHT22;7151;52.246;4.820;2022-09-09T03:57:13;20.70;66.60
14142;DHT22;7151;52.246;4.820;2022-09-09T03:59:42;20.70;66.60
14142;DHT22;7151;52.246;4.820;2022-09-09T04:02:07;20.70;66.60
14142;DHT22;7151;52.246;4.820;2022-09-09T04:04:34;20.70;66.60
14142;DHT22;7151;52.246;4.820;2022-09-09T04:06:59;20.70;66.60
14142;DHT22;7151;52.246;4.820;2022-09-09T04:09:25;20.70;66.60
14142;DHT22;7151;52.246;4.820;2022-09-09T04:11:51;20.60;66.60
14142;DHT22;7151;52.246;4.820;2022-09-09T04:14:18;20.70;66.60
14142;DHT22;7151;52.246;4.820;2022-09-09T04:16:44;20.60;66.60
14142;DHT22;7151;52.246;4.820;2022-09-09T04:19:10;20.60;66.80
14142;DHT22;7151;52.246;4.820;2022-09-09T04:21:38;20.50;66.70
14142;DHT22;7151;52.246;4.820;2022-09-09T04:24:06;20.50;66.80
14142;DHT22;7151;52.246;4.820;2022-09-09T04:26:32;20.50;66.90
14142;DHT22;7151;52.246;4.820;2022-09-09T04:28:58;20.50;66.90
14142;DHT22;7151;52.246;4.820;2022-09-09T04:31:24;20.50;66.90
14142;DHT22;7151;52.246;4.820;2022-09-09T04:33:52;20.50;67.00
14142;DHT22;7151;52.246;4.820;2022-09-09T04:36:19;20.50;67.10
14142;DHT22;7151;52.246;4.820;2022-09-09T04:38:45;20.50;67.00
14142;DHT22;7151;52.246;4.820;2022-09-09T04:41:11;20.40;66.90
14142;DHT22;7151;52.246;4.820;2022-09-09T04:43:38;20.40;66.90
14142;DHT22;7151;52.246;4.820;2022-09-09T04:46:04;20.40;67.00
14142;DHT22;7151;52.246;4.820;2022-09-09T04:48:31;20.40;67.10
14142;DHT22;7151;52.246;4.820;2022-09-09T04:51:08;20.30;67.00
14142;DHT22;7151;52.246;4.820;2022-09-09T04:53:35;20.30;67.20
14142;DHT22;7151;52.246;4.820;2022-09-09T04:56:04;20.30;67.10
14142;DHT22;7151;52.246;4.820;2022-09-09T04:58:31;20.30;67.20
14142;DHT22;7151;52.246;4.820;2022-09-09T05:01:08;20.30;67.30
14142;DHT22;7151;52.246;4.820;2022-09-09T05:03:34;20.30;67.40
14142;DHT22;7151;52.246;4.820;2022-09-09T05:06:07;20.30;67.40
14142;DHT22;7151;52.246;4.820;2022-09-09T05:08:34;20.20;67.50
14142;DHT22;7151;52.246;4.820;2022-09-09T05:10:59;20.20;67.50
14142;DHT22;7151;52.246;4.820;2022-09-09T05:13:26;20.20;67.50
14142;DHT22;7151;52.246;4.820;2022-09-09T05:15:53;20.20;67.60
14142;DHT22;7151;52.246;4.820;2022-09-09T05:18:18;20.10;67.60
14142;DHT22;7151;52.246;4.820;2022-09-09T05:20:44;20.10;67.70
14142;DHT22;7151;52.246;4.820;2022-09-09T05:23:09;20.00;67.70
14142;DHT22;7151;52.246;4.820;2022-09-09T05:25:39;20.10;67.80
14142;DHT22;7151;52.246;4.820;2022-09-09T05:28:05;20.10;67.90
14142;DHT22;7151;52.246;4.820;2022-09-09T05:30:33;20.10;68.10
14142;DHT22;7151;52.246;4.820;2022-09-09T05:32:59;20.10;68.10
14142;DHT22;7151;52.246;4.820;2022-09-09T05:35:25;20.10;68.10
14142;DHT22;7151;52.246;4.820;2022-09-09T05:37:50;20.00;68.10
14142;DHT22;7151;52.246;4.820;2022-09-09T05:40:16;20.00;68.10
14142;DHT22;7151;52.246;4.820;2022-09-09T05:42:42;20.00;68.20
14142;DHT22;7151;52.246;4.820;2022-09-09T05:45:08;20.00;68.20
14142;DHT22;7151;52.246;4.820;2022-09-09T05:47:35;20.00;68.30
14142;DHT22;7151;52.246;4.820;2022-09-09T05:50:01;20.00;68.50
14142;DHT22;7151;52.246;4.820;2022-09-09T05:52:26;20.00;68.50
14142;DHT22;7151;52.246;4.820;2022-09-09T05:54:52;19.90;68.50
14142;DHT22;7151;52.246;4.820;2022-09-09T05:57:19;19.90;68.70
14142;DHT22;7151;52.246;4.820;2022-09-09T05:59:45;19.90;68.90
14142;DHT22;7151;52.246;4.820;2022-09-09T06:02:11;19.90;69.00
14142;DHT22;7151;52.246;4.820;2022-09-09T06:04:37;19.90;69.10
14142;DHT22;7151;52.246;4.820;2022-09-09T06:07:04;19.90;69.30
14142;DHT22;7151;52.246;4.820;2022-09-09T06:09:30;19.90;69.40
14142;DHT22;7151;52.246;4.820;2022-09-09T06:11:56;19.90;69.60
14142;DHT22;7151;52.246;4.820;2022-09-09T06:14:22;20.00;69.60
14142;DHT22;7151;52.246;4.820;2022-09-09T06:16:48;19.90;69.80
14142;DHT22;7151;52.246;4.820;2022-09-09T06:19:14;19.90;69.90
14142;DHT22;7151;52.246;4.820;2022-09-09T06:21:40;19.90;70.00
14142;DHT22;7151;52.246;4.820;2022-09-09T06:24:06;19.90;70.20
14142;DHT22;7151;52.246;4.820;2022-09-09T06:26:37;20.00;70.40
14142;DHT22;7151;52.246;4.820;2022-09-09T06:29:06;20.00;70.50
14142;DHT22;7151;52.246;4.820;2022-09-09T06:31:34;20.00;70.50
14142;DHT22;7151;52.246;4.820;2022-09-09T06:34:00;20.00;70.70
14142;DHT22;7151;52.246;4.820;2022-09-09T06:36:31;20.10;70.90
14142;DHT22;7151;52.246;4.820;2022-09-09T06:38:58;20.10;71.70
14142;DHT22;7151;52.246;4.820;2022-09-09T06:41:27;20.10;71.00
14142;DHT22;7151;52.246;4.820;2022-09-09T06:43:54;20.10;71.20
14142;DHT22;7151;52.246;4.820;2022-09-09T06:46:23;20.20;71.20
14142;DHT22;7151;52.246;4.820;2022-09-09T06:48:50;20.20;71.20
14142;DHT22;7151;52.246;4.820;2022-09-09T06:51:20;20.20;71.30
14142;DHT22;7151;52.246;4.820;2022-09-09T06:53:53;20.20;71.40
14142;DHT22;7151;52.246;4.820;2022-09-09T06:56:26;20.20;71.40
14142;DHT22;7151;52.246;4.820;2022-09-09T06:58:54;20.20;71.40
14142;DHT22;7151;52.246;4.820;2022-09-09T07:01:22;20.20;71.50
14142;DHT22;7151;52.246;4.820;2022-09-09T07:03:54;20.20;71.60
14142;DHT22;7151;52.246;4.820;2022-09-09T07:06:25;20.30;71.70
14142;DHT22;7151;52.246;4.820;2022-09-09T07:08:52;20.30;71.60
14142;DHT22;7151;52.246;4.820;2022-09-09T07:11:19;20.30;71.60
14142;DHT22;7151;52.246;4.820;2022-09-09T07:13:46;20.30;71.70
14142;DHT22;7151;52.246;4.820;2022-09-09T07:16:14;20.30;71.70
14142;DHT22;7151;52.246;4.820;2022-09-09T07:18:40;20.30;71.80
14142;DHT22;7151;52.246;4.820;2022-09-09T07:21:08;20.30;72.60
14142;DHT22;7151;52.246;4.820;2022-09-09T07:23:34;20.30;72.00
14142;DHT22;7151;52.246;4.820;2022-09-09T07:26:02;20.30;72.00
14142;DHT22;7151;52.246;4.820;2022-09-09T07:28:28;20.30;72.00
14142;DHT22;7151;52.246;4.820;2022-09-09T07:30:57;20.30;72.00
14142;DHT22;7151;52.246;4.820;2022-09-09T07:33:24;20.30;72.10
14142;DHT22;7151;52.246;4.820;2022-09-09T07:35:51;20.30;72.10
14142;DHT22;7151;52.246;4.820;2022-09-09T07:38:17;20.40;72.20
14142;DHT22;7151;52.246;4.820;2022-09-09T07:40:43;20.40;72.30
14142;DHT22;7151;52.246;4.820;2022-09-09T07:43:09;20.40;72.30
14142;DHT22;7151;52.246;4.820;2022-09-09T07:45:34;20.40;72.40
14142;DHT22;7151;52.246;4.820;2022-09-09T07:48:01;20.40;72.40
14142;DHT22;7151;52.246;4.820;2022-09-09T07:50:26;20.40;72.40
14142;DHT22;7151;52.246;4.820;2022-09-09T07:52:53;20.40;72.40
14142;DHT22;7151;52.246;4.820;2022-09-09T07:55:22;20.40;72.50
14142;DHT22;7151;52.246;4.820;2022-09-09T07:57:53;20.50;72.50
14142;DHT22;7151;52.246;4.820;2022-09-09T08:00:19;20.50;72.60
14142;DHT22;7151;52.246;4.820;2022-09-09T08:02:45;20.50;72.70
14142;DHT22;7151;52.246;4.820;2022-09-09T08:05:11;20.50;73.40
14142;DHT22;7151;52.246;4.820;2022-09-09T08:07:38;20.50;72.80
14142;DHT22;7151;52.246;4.820;2022-09-09T08:10:04;20.50;72.80
14142;DHT22;7151;52.246;4.820;2022-09-09T08:12:29;20.50;72.80
14142;DHT22;7151;52.246;4.820;2022-09-09T08:14:55;20.60;73.00
14142;DHT22;7151;52.246;4.820;2022-09-09T08:17:20;20.70;73.00
14142;DHT22;7151;52.246;4.820;2022-09-09T08:19:46;20.60;72.90
14142;DHT22;7151;52.246;4.820;2022-09-09T08:22:11;20.70;72.90
14142;DHT22;7151;52.246;4.820;2022-09-09T08:24:37;20.70;72.80
14142;DHT22;7151;52.246;4.820;2022-09-09T08:27:03;20.70;72.80
14142;DHT22;7151;52.246;4.820;2022-09-09T08:29:28;20.70;72.80
14142;DHT22;7151;52.246;4.820;2022-09-09T08:31:56;20.70;72.70
14142;DHT22;7151;52.246;4.820;2022-09-09T08:34:23;20.70;72.60
14142;DHT22;7151;52.246;4.820;2022-09-09T08:36:50;20.70;72.60
14142;DHT22;7151;52.246;4.820;2022-09-09T08:39:18;20.70;72.50
14142;DHT22;7151;52.246;4.820;2022-09-09T08:42:03;20.80;72.50
14142;DHT22;7151;52.246;4.820;2022-09-09T08:49:54;20.80;72.50
14142;DHT22;7151;52.246;4.820;2022-09-09T08:58:22;20.80;72.40
14142;DHT22;7151;52.246;4.820;2022-09-09T09:09:11;20.80;72.20
14142;DHT22;7151;52.246;4.820;2022-09-09T09:11:46;20.80;72.20
14142;DHT22;7151;52.246;4.820;2022-09-09T09:14:24;20.80;72.20
14142;DHT22;7151;52.246;4.820;2022-09-09T09:16:57;20.80;72.10
14142;DHT22;7151;52.246;4.820;2022-09-09T09:19:24;20.80;72.10
14142;DHT22;7151;52.246;4.820;2022-09-09T09:24:51;20.80;72.20
14142;DHT22;7151;52.246;4.820;2022-09-09T09:30:23;20.80;72.20
14142;DHT22;7151;52.246;4.820;2022-09-09T09:33:22;20.80;72.10
14142;DHT22;7151;52.246;4.820;2022-09-09T09:35:49;20.90;72.20
14142;DHT22;7151;52.246;4.820;2022-09-09T09:40:57;20.90;72.20
14142;DHT22;7151;52.246;4.820;2022-09-09T09:43:34;20.90;73.10
14142;DHT22;7151;52.246;4.820;2022-09-09T09:46:00;20.90;72.50
14142;DHT22;7151;52.246;4.820;2022-09-09T09:48:28;20.90;72.50
14142;DHT22;7151;52.246;4.820;2022-09-09T09:50:57;20.90;72.50
14142;DHT22;7151;52.246;4.820;2022-09-09T09:53:26;20.90;72.60
14142;DHT22;7151;52.246;4.820;2022-09-09T09:55:57;20.90;72.80
14142;DHT22;7151;52.246;4.820;2022-09-09T09:58:24;20.90;72.80
14142;DHT22;7151;52.246;4.820;2022-09-09T10:00:52;20.80;72.80
14142;DHT22;7151;52.246;4.820;2022-09-09T10:03:30;20.90;72.80
14142;DHT22;7151;52.246;4.820;2022-09-09T10:05:56;20.90;73.00
14142;DHT22;7151;52.246;4.820;2022-09-09T10:08:26;20.90;73.00
14142;DHT22;7151;52.246;4.820;2022-09-09T10:19:13;21.00;74.00
14142;DHT22;7151;52.246;4.820;2022-09-09T10:47:14;21.20;73.70
14142;DHT22;7151;52.246;4.820;2022-09-09T10:52:01;21.40;73.30
14142;DHT22;7151;52.246;4.820;2022-09-09T10:59:46;21.40;73.50
14142;DHT22;7151;52.246;4.820;2022-09-09T11:02:17;21.50;72.80
14142;DHT22;7151;52.246;4.820;2022-09-09T11:04:59;21.50;72.60
14142;DHT22;7151;52.246;4.820;2022-09-09T11:07:56;21.50;72.60
14142;DHT22;7151;52.246;4.820;2022-09-09T11:13:13;21.50;72.30
14142;DHT22;7151;52.246;4.820;2022-09-09T11:15:48;21.50;72.30
14142;DHT22;7151;52.246;4.820;2022-09-09T11:18:21;21.50;72.50
14142;DHT22;7151;52.246;4.820;2022-09-09T11:20:51;21.50;72.50
14142;DHT22;7151;52.246;4.820;2022-09-09T11:23:38;21.50;72.30
14142;DHT22;7151;52.246;4.820;2022-09-09T11:26:08;21.50;72.10
14142;DHT22;7151;52.246;4.820;2022-09-09T11:29:02;21.50;72.10
14142;DHT22;7151;52.246;4.820;2022-09-09T11:31:55;21.50;72.10
14142;DHT22;7151;52.246;4.820;2022-09-09T11:34:47;21.50;72.20
14142;DHT22;7151;52.246;4.820;2022-09-09T11:37:17;21.60;72.20
14142;DHT22;7151;52.246;4.820;2022-09-09T11:42:35;21.60;73.00
14142;DHT22;7151;52.246;4.820;2022-09-09T11:45:19;21.60;72.60
14142;DHT22;7151;52.246;4.820;2022-09-09T11:47:54;21.50;72.60
14142;DHT22;7151;52.246;4.820;2022-09-09T11:52:47;21.50;73.00
14142;DHT22;7151;52.246;4.820;2022-09-09T11:55:28;21.50;73.50
14142;DHT22;7151;52.246;4.820;2022-09-09T12:00:39;21.50;73.70
14142;DHT22;7151;52.246;4.820;2022-09-09T12:06:27;21.50;74.10
14142;DHT22;7151;52.246;4.820;2022-09-09T12:09:27;21.40;74.00
14142;DHT22;7151;52.246;4.820;2022-09-09T12:11:50;21.40;74.10
14142;DHT22;7151;52.246;4.820;2022-09-09T12:14:54;21.50;74.10
14142;DHT22;7151;52.246;4.820;2022-09-09T12:17:25;21.50;74.20
14142;DHT22;7151;52.246;4.820;2022-09-09T12:25:58;21.50;74.10
14142;DHT22;7151;52.246;4.820;2022-09-09T12:28:39;21.50;74.10
14142;DHT22;7151;52.246;4.820;2022-09-09T12:33:43;21.60;74.00
14142;DHT22;7151;52.246;4.820;2022-09-09T12:36:14;21.60;73.80
14142;DHT22;7151;52.246;4.820;2022-09-09T12:38:42;21.60;73.70
14142;DHT22;7151;52.246;4.820;2022-09-09T12:41:23;21.60;73.70
14142;DHT22;7151;52.246;4.820;2022-09-09T12:43:50;21.60;73.70
14142;DHT22;7151;52.246;4.820;2022-09-09T12:46:36;21.60;73.60
14142;DHT22;7151;52.246;4.820;2022-09-09T12:49:04;21.60;73.60
14142;DHT22;7151;52.246;4.820;2022-09-09T12:51:32;21.60;73.50
14142;DHT22;7151;52.246;4.820;2022-09-09T12:53:59;21.60;73.80
14142;DHT22;7151;52.246;4.820;2022-09-09T12:56:32;21.60;74.20
14142;DHT22;7151;52.246;4.820;2022-09-09T12:58:58;21.60;74.70
14142;DHT22;7151;52.246;4.820;2022-09-09T13:01:32;21.60;75.00
14142;DHT22;7151;52.246;4.820;2022-09-09T13:04:01;21.60;75.30
14142;DHT22;7151;52.246;4.820;2022-09-09T13:06:29;21.50;75.30
14142;DHT22;7151;52.246;4.820;2022-09-09T13:08:56;21.50;75.60
14142;DHT22;7151;52.246;4.820;2022-09-09T13:11:28;21.50;76.50
14142;DHT22;7151;52.246;4.820;2022-09-09T13:13:56;21.50;76.10
14142;DHT22;7151;52.246;4.820;2022-09-09T13:16:26;21.50;76.20
14142;DHT22;7151;52.246;4.820;2022-09-09T13:18:55;21.50;76.40
14142;DHT22;7151;52.246;4.820;2022-09-09T13:21:34;21.40;76.50
14142;DHT22;7151;52.246;4.820;2022-09-09T13:24:00;21.40;76.30
14142;DHT22;7151;52.246;4.820;2022-09-09T13:26:28;21.40;76.20
14142;DHT22;7151;52.246;4.820;2022-09-09T13:29:07;21.40;76.20
14142;DHT22;7151;52.246;4.820;2022-09-09T13:31:36;21.40;77.10
14142;DHT22;7151;52.246;4.820;2022-09-09T13:34:31;21.40;76.50
14142;DHT22;7151;52.246;4.820;2022-09-09T13:37:02;21.40;76.70
14142;DHT22;7151;52.246;4.820;2022-09-09T13:39:29;21.40;76.60
14142;DHT22;7151;52.246;4.820;2022-09-09T13:41:54;21.40;76.50
14142;DHT22;7151;52.246;4.820;2022-09-09T13:44:27;21.40;76.60
14142;DHT22;7151;52.246;4.820;2022-09-09T13:47:21;21.40;76.70
14142;DHT22;7151;52.246;4.820;2022-09-09T13:49:48;21.40;76.70
14142;DHT22;7151;52.246;4.820;2022-09-09T13:52:16;21.40;76.70
14142;DHT22;7151;52.246;4.820;2022-09-09T13:54:48;21.40;76.70
14142;DHT22;7151;52.246;4.820;2022-09-09T13:59:42;21.50;76.80
14142;DHT22;7151;52.246;4.820;2022-09-09T14:02:08;21.50;76.80
14142;DHT22;7151;52.246;4.820;2022-09-09T14:04:33;21.60;76.80
14142;DHT22;7151;52.246;4.820;2022-09-09T14:07:00;21.50;76.70
14142;DHT22;7151;52.246;4.820;2022-09-09T14:09:26;21.50;76.70
14142;DHT22;7151;52.246;4.820;2022-09-09T14:11:52;21.50;76.80
14142;DHT22;7151;52.246;4.820;2022-09-09T14:14:17;21.50;76.80
14142;DHT22;7151;52.246;4.820;2022-09-09T14:16:43;21.60;77.10
14142;DHT22;7151;52.246;4.820;2022-09-09T14:19:09;21.60;77.30
14142;DHT22;7151;52.246;4.820;2022-09-09T14:21:35;21.70;77.50
14142;DHT22;7151;52.246;4.820;2022-09-09T14:24:00;21.80;77.80
14142;DHT22;7151;52.246;4.820;2022-09-09T14:26:26;21.90;77.70
14142;DHT22;7151;52.246;4.820;2022-09-09T14:28:54;21.90;77.50
14142;DHT22;7151;52.246;4.820;2022-09-09T14:31:19;22.00;77.40
14142;DHT22;7151;52.246;4.820;2022-09-09T14:33:46;22.10;77.10
14142;DHT22;7151;52.246;4.820;2022-09-09T14:36:11;22.10;76.60
14142;DHT22;7151;52.246;4.820;2022-09-09T14:38:38;22.20;76.20
14142;DHT22;7151;52.246;4.820;2022-09-09T14:41:05;22.20;75.90
14142;DHT22;7151;52.246;4.820;2022-09-09T14:43:31;22.20;75.70
14142;DHT22;7151;52.246;4.820;2022-09-09T14:46:07;22.20;75.60
14142;DHT22;7151;52.246;4.820;2022-09-09T14:48:33;22.20;75.60
14142;DHT22;7151;52.246;4.820;2022-09-09T14:51:23;22.20;75.40
14142;DHT22;7151;52.246;4.820;2022-09-09T14:53:51;22.20;75.40
14142;DHT22;7151;52.246;4.820;2022-09-09T14:56:20;22.10;75.30
14142;DHT22;7151;52.246;4.820;2022-09-09T14:58:47;22.10;75.30
14142;DHT22;7151;52.246;4.820;2022-09-09T15:01:15;22.10;75.20
14142;DHT22;7151;52.246;4.820;2022-09-09T15:03:47;22.10;75.20
14142;DHT22;7151;52.246;4.820;2022-09-09T15:06:14;22.10;75.20
14142;DHT22;7151;52.246;4.820;2022-09-09T15:08:43;22.10;75.40
14142;DHT22;7151;52.246;4.820;2022-09-09T15:11:10;22.10;75.70
14142;DHT22;7151;52.246;4.820;2022-09-09T15:13:37;22.10;76.00
14142;DHT22;7151;52.246;4.820;2022-09-09T15:16:10;22.10;76.40
14142;DHT22;7151;52.246;4.820;2022-09-09T15:18:36;22.10;76.70
14142;DHT22;7151;52.246;4.820;2022-09-09T15:21:05;22.20;77.00
14142;DHT22;7151;52.246;4.820;2022-09-09T15:23:32;22.20;77.00
14142;DHT22;7151;52.246;4.820;2022-09-09T15:25:58;22.20;77.10
14142;DHT22;7151;52.246;4.820;2022-09-09T15:28:24;22.30;77.10
14142;DHT22;7151;52.246;4.820;2022-09-09T15:30:50;22.30;76.80
14142;DHT22;7151;52.246;4.820;2022-09-09T15:33:21;22.30;77.00
14142;DHT22;7151;52.246;4.820;2022-09-09T15:35:47;22.30;76.60
14142;DHT22;7151;52.246;4.820;2022-09-09T15:38:13;22.30;76.50
14142;DHT22;7151;52.246;4.820;2022-09-09T15:40:41;22.30;76.50
14142;DHT22;7151;52.246;4.820;2022-09-09T15:43:07;22.10;76.50
14142;DHT22;7151;52.246;4.820;2022-09-09T15:45:35;22.20;76.30
14142;DHT22;7151;52.246;4.820;2022-09-09T15:48:01;22.20;76.30
14142;DHT22;7151;52.246;4.820;2022-09-09T15:50:27;22.20;76.60
14142;DHT22;7151;52.246;4.820;2022-09-09T15:52:53;22.20;77.00
14142;DHT22;7151;52.246;4.820;2022-09-09T15:55:19;22.10;77.40
14142;DHT22;7151;52.246;4.820;2022-09-09T15:57:50;22.10;77.40
14142;DHT22;7151;52.246;4.820;2022-09-09T16:00:18;22.10;77.40
14142;DHT22;7151;52.246;4.820;2022-09-09T16:02:44;22.10;77.70
14142;DHT22;7151;52.246;4.820;2022-09-09T16:05:09;22.10;78.00
14142;DHT22;7151;52.246;4.820;2022-09-09T16:07:35;22.10;78.10
14142;DHT22;7151;52.246;4.820;2022-09-09T16:10:01;22.10;78.30
14142;DHT22;7151;52.246;4.820;2022-09-09T16:12:27;22.00;78.30
14142;DHT22;7151;52.246;4.820;2022-09-09T16:14:52;22.00;78.40
14142;DHT22;7151;52.246;4.820;2022-09-09T16:17:18;22.00;78.60
14142;DHT22;7151;52.246;4.820;2022-09-09T16:19:45;22.00;78.70
14142;DHT22;7151;52.246;4.820;2022-09-09T16:22:11;22.00;78.70
14142;DHT22;7151;52.246;4.820;2022-09-09T16:24:36;22.00;78.70
14142;DHT22;7151;52.246;4.820;2022-09-09T16:27:02;21.90;79.40
14142;DHT22;7151;52.246;4.820;2022-09-09T16:29:28;21.90;78.60
14142;DHT22;7151;52.246;4.820;2022-09-09T16:31:54;21.90;78.70
14142;DHT22;7151;52.246;4.820;2022-09-09T16:34:20;21.90;78.80
14142;DHT22;7151;52.246;4.820;2022-09-09T16:36:46;21.90;78.90
14142;DHT22;7151;52.246;4.820;2022-09-09T16:39:19;21.90;79.00
14142;DHT22;7151;52.246;4.820;2022-09-09T16:41:46;21.90;79.10
14142;DHT22;7151;52.246;4.820;2022-09-09T16:44:14;21.90;79.10
14142;DHT22;7151;52.246;4.820;2022-09-09T16:46:42;21.90;79.20
14142;DHT22;7151;52.246;4.820;2022-09-09T16:49:10;21.90;79.20
14142;DHT22;7151;52.246;4.820;2022-09-09T16:51:42;21.90;79.30
14142;DHT22;7151;52.246;4.820;2022-09-09T16:54:09;21.90;79.50
14142;DHT22;7151;52.246;4.820;2022-09-09T16:56:37;21.90;79.60
14142;DHT22;7151;52.246;4.820;2022-09-09T16:59:15;21.90;79.70
14142;DHT22;7151;52.246;4.820;2022-09-09T17:01:43;22.00;80.00
14142;DHT22;7151;52.246;4.820;2022-09-09T17:04:11;22.00;80.10
14142;DHT22;7151;52.246;4.820;2022-09-09T17:06:38;22.00;80.20
14142;DHT22;7151;52.246;4.820;2022-09-09T17:09:09;22.00;80.20
14142;DHT22;7151;52.246;4.820;2022-09-09T17:11:36;22.00;80.20
14142;DHT22;7151;52.246;4.820;2022-09-09T17:14:03;22.00;79.80
14142;DHT22;7151;52.246;4.820;2022-09-09T17:16:31;22.00;79.40
14142;DHT22;7151;52.246;4.820;2022-09-09T17:18:59;22.00;79.20
14142;DHT22;7151;52.246;4.820;2022-09-09T17:21:27;22.00;79.00
14142;DHT22;7151;52.246;4.820;2022-09-09T17:23:53;21.90;78.80
14142;DHT22;7151;52.246;4.820;2022-09-09T17:26:22;22.00;78.80
14142;DHT22;7151;52.246;4.820;2022-09-09T17:28:48;21.90;78.70
14142;DHT22;7151;52.246;4.820;2022-09-09T17:31:16;21.90;78.90
14142;DHT22;7151;52.246;4.820;2022-09-09T17:33:46;21.90;78.90
14142;DHT22;7151;52.246;4.820;2022-09-09T17:36:14;21.90;78.90
14142;DHT22;7151;52.246;4.820;2022-09-09T17:38:40;21.90;78.70
14142;DHT22;7151;52.246;4.820;2022-09-09T17:43:44;21.80;78.60
14142;DHT22;7151;52.246;4.820;2022-09-09T17:46:36;21.80;78.70
14142;DHT22;7151;52.246;4.820;2022-09-09T17:49:05;21.80;78.90
14142;DHT22;7151;52.246;4.820;2022-09-09T17:51:33;21.80;78.80
14142;DHT22;7151;52.246;4.820;2022-09-09T17:54:05;21.80;78.80
14142;DHT22;7151;52.246;4.820;2022-09-09T17:56:33;21.80;78.90
14142;DHT22;7151;52.246;4.820;2022-09-09T17:59:02;21.80;78.90
14142;DHT22;7151;52.246;4.820;2022-09-09T18:01:30;21.70;78.90
14142;DHT22;7151;52.246;4.820;2022-09-09T18:03:59;21.80;78.90
14142;DHT22;7151;52.246;4.820;2022-09-09T18:06:31;21.80;79.70
14142;DHT22;7151;52.246;4.820;2022-09-09T18:09:00;21.80;79.20
14142;DHT22;7151;52.246;4.820;2022-09-09T18:11:30;21.80;79.20
14142;DHT22;7151;52.246;4.820;2022-09-09T18:13:59;21.80;79.20
14142;DHT22;7151;52.246;4.820;2022-09-09T18:16:26;21.80;79.30
14142;DHT22;7151;52.246;4.820;2022-09-09T18:18:54;21.80;79.40